Time;durP1;ratioP1;P1;durP2;ratioP2;P2;SDS_P1;SDS_P2;PMS_P1;PMS_P2;Temp;Humidity;BMP_temperature;BMP_pressure;BME280_temperature;BME280_humidity;BME280_pressure;Samples;Min_cycle;Max_cycle;Signal;HPM_P1;HPM_P2
2021/04/24 00:01:31;;;;;;;5.45;3.10;;;12.50;64.40;;;;;;5056698;28;20037;-78
2021/04/24 00:04:03;;;;;;;2.83;2.42;;;12.50;64.50;;;;;;5057106;28;20453;-79
2021/04/24 00:06:30;;;;;;;4.53;2.67;;;12.50;64.40;;;;;;5056309;28;20040;-79
2021/04/24 00:08:57;;;;;;;2.72;2.42;;;12.50;64.40;;;;;;5056659;28;20052;-79
2021/04/24 00:11:24;;;;;;;4.45;2.67;;;12.50;64.30;;;;;;5055080;28;20060;-79
2021/04/24 00:13:51;;;;;;;5.25;3.05;;;12.50;64.40;;;;;;5054933;28;20041;-79
2021/04/24 00:16:21;;;;;;;3.75;2.65;;;12.50;65.00;;;;;;5056293;28;20048;-80
2021/04/24 00:18:47;;;;;;;4.63;2.30;;;12.40;64.40;;;;;;5055847;28;20036;-79
2021/04/24 00:21:14;;;;;;;4.30;2.65;;;12.40;64.50;;;;;;5054899;28;20037;-80
2021/04/24 00:23:40;;;;;;;3.78;2.60;;;12.40;64.60;;;;;;5056151;28;20033;-78
2021/04/24 00:26:06;;;;;;;5.40;3.00;;;12.40;64.60;;;;;;5054664;28;20037;-79
2021/04/24 00:28:32;;;;;;;6.70;2.88;;;12.40;64.60;;;;;;5055929;28;20626;-79
2021/04/24 00:30:58;;;;;;;5.43;2.80;;;12.40;64.50;;;;;;5054776;28;20067;-79
2021/04/24 00:33:25;;;;;;;4.93;2.90;;;12.40;64.40;;;;;;5055582;28;20128;-78
2021/04/24 00:35:52;;;;;;;5.95;3.08;;;12.40;64.30;;;;;;5054487;28;20443;-79
2021/04/24 00:38:18;;;;;;;3.88;3.00;;;12.30;64.20;;;;;;5055767;28;20106;-79
2021/04/24 00:40:45;;;;;;;4.32;3.00;;;12.30;64.00;;;;;;5054539;28;20041;-78
2021/04/24 00:43:13;;;;;;;3.28;2.42;;;12.30;64.00;;;;;;5055798;28;20053;-79
2021/04/24 00:45:39;;;;;;;6.00;2.92;;;12.30;63.80;;;;;;5055421;28;20045;-79
2021/04/24 00:48:06;;;;;;;4.80;2.63;;;12.30;63.70;;;;;;5054303;28;20056;-78
2021/04/24 00:50:34;;;;;;;3.15;2.63;;;12.20;63.50;;;;;;5055031;28;20028;-77
2021/04/24 00:53:05;;;;;;;3.30;2.60;;;12.20;63.40;;;;;;5055891;28;20033;-78
2021/04/24 00:55:33;;;;;;;3.95;2.50;;;12.20;63.40;;;;;;5054458;28;20494;-79
2021/04/24 00:58:00;;;;;;;3.40;2.65;;;12.20;63.30;;;;;;5053985;28;20041;-80
2021/04/24 01:00:26;;;;;;;5.47;2.78;;;12.10;63.30;;;;;;5054137;28;20033;-79
2021/04/24 01:02:57;;;;;;;3.95;2.45;;;12.10;63.30;;;;;;5053720;28;20130;-79
2021/04/24 01:05:33;;;;;;;3.30;2.90;;;12.10;63.30;;;;;;5053887;28;20060;-79
2021/04/24 01:08:00;;;;;;;3.05;2.50;;;12.10;63.20;;;;;;5036578;28;20053;-78
2021/04/24 01:10:33;;;;;;;4.65;2.30;;;12.10;63.10;;;;;;5054280;28;20118;-79
2021/04/24 01:13:00;;;;;;;3.80;2.70;;;12.10;63.70;;;;;;5037413;28;20037;-78
2021/04/24 01:15:26;;;;;;;3.53;2.80;;;12.10;63.10;;;;;;5053579;28;20041;-79
2021/04/24 01:17:59;;;;;;;4.35;3.30;;;12.10;63.10;;;;;;5037211;28;20041;-78
2021/04/24 01:20:26;;;;;;;4.47;2.40;;;12.00;63.10;;;;;;5053980;28;20032;-79
2021/04/24 01:22:53;;;;;;;2.40;2.20;;;12.00;63.10;;;;;;5055055;28;20404;-78
2021/04/24 01:25:23;;;;;;;2.50;2.30;;;12.00;63.20;;;;;;5054873;28;20033;-79
2021/04/24 01:27:54;;;;;;;4.07;3.00;;;12.00;63.20;;;;;;5053603;28;20041;-79
2021/04/24 01:30:29;;;;;;;4.28;2.42;;;12.00;63.20;;;;;;5054831;28;20095;-82
2021/04/24 01:33:00;;;;;;;2.65;2.40;;;12.00;63.20;;;;;;5055156;28;20029;-78
2021/04/24 01:35:30;;;;;;;5.88;3.00;;;11.90;63.30;;;;;;5052801;28;20049;-79
2021/04/24 01:37:57;;;;;;;4.90;3.10;;;11.90;63.40;;;;;;5054659;28;20060;-81
2021/04/24 01:40:23;;;;;;;4.07;3.00;;;11.90;63.40;;;;;;5054302;28;20068;-80
2021/04/24 01:42:50;;;;;;;2.90;2.60;;;11.90;63.60;;;;;;5054496;28;20033;-79
2021/04/24 01:45:19;;;;;;;3.40;2.58;;;11.90;63.50;;;;;;5054310;28;20048;-80
2021/04/24 01:47:48;;;;;;;3.03;2.47;;;11.90;63.50;;;;;;5054533;28;20079;-79
2021/04/24 01:50:21;;;;;;;5.47;2.42;;;11.80;63.50;;;;;;5053038;28;20048;-79
2021/04/24 01:52:51;;;;;;;4.03;2.47;;;11.80;63.60;;;;;;5054251;28;20072;-79
2021/04/24 01:55:23;;;;;;;4.35;2.72;;;11.80;63.50;;;;;;5053187;28;20131;-80
2021/04/24 01:57:53;;;;;;;3.63;2.70;;;11.80;63.60;;;;;;5053184;28;20048;-81
2021/04/24 02:00:31;;;;;;;4.78;2.22;;;11.80;63.50;;;;;;5054432;28;20120;-80
2021/04/24 02:03:00;;;;;;;3.05;2.75;;;11.80;63.60;;;;;;5052863;28;20053;-80
2021/04/24 02:05:27;;;;;;;3.40;2.63;;;11.80;63.60;;;;;;5052562;28;20088;-80
2021/04/24 02:07:57;;;;;;;3.05;2.47;;;11.80;63.50;;;;;;5053861;28;20068;-81
2021/04/24 02:10:27;;;;;;;4.72;2.92;;;11.80;63.50;;;;;;5052732;28;20037;-80
2021/04/24 02:13:00;;;;;;;3.42;2.83;;;11.80;63.60;;;;;;5054164;28;20052;-81
2021/04/24 02:15:38;;;;;;;2.15;2.00;;;11.80;63.60;;;;;;5053979;28;20048;-79
2021/04/24 02:18:05;;;;;;;2.97;2.50;;;11.80;63.60;;;;;;5052766;28;20041;-79
2021/04/24 02:20:33;;;;;;;4.70;2.35;;;11.80;63.60;;;;;;5051760;28;20054;-80
2021/04/24 02:22:59;;;;;;;4.25;2.47;;;11.80;63.50;;;;;;5053171;28;20044;-80
2021/04/24 02:25:27;;;;;;;3.50;2.63;;;11.80;63.50;;;;;;5052577;28;20036;-80
2021/04/24 02:27:55;;;;;;;2.80;2.55;;;11.80;63.50;;;;;;5053539;28;20080;-81
2021/04/24 02:30:23;;;;;;;4.65;2.72;;;11.80;63.50;;;;;;5054004;28;20037;-80
2021/04/24 02:32:50;;;;;;;3.55;2.45;;;11.80;63.60;;;;;;5052980;28;20037;-80
2021/04/24 02:35:36;;;;;;;5.43;2.40;;;11.80;63.70;;;;;;5053946;28;20131;-80
2021/04/24 02:38:03;;;;;;;3.38;2.15;;;11.80;63.60;;;;;;5053707;28;20537;-80
2021/04/24 02:40:29;;;;;;;3.80;2.70;;;11.80;63.70;;;;;;5052824;28;20068;-80
2021/04/24 02:42:56;;;;;;;3.53;2.30;;;11.90;64.00;;;;;;5053579;28;20029;-81
2021/04/24 02:45:23;;;;;;;3.92;2.30;;;11.80;63.90;;;;;;5052260;28;20041;-79
2021/04/24 02:47:49;;;;;;;2.95;2.47;;;11.90;63.90;;;;;;5053833;28;20072;-80
2021/04/24 02:50:18;;;;;;;3.10;2.35;;;11.90;64.00;;;;;;5054091;28;20580;-81
2021/04/24 02:52:46;;;;;;;2.70;2.40;;;11.90;64.00;;;;;;5053212;28;20508;-79
2021/04/24 02:55:14;;;;;;;5.78;2.50;;;11.90;64.00;;;;;;5051845;28;20512;-82
2021/04/24 02:57:40;;;;;;;5.45;3.03;;;11.90;64.00;;;;;;5050631;28;20136;-81
2021/04/24 03:00:08;;;;;;;3.22;2.70;;;11.80;64.00;;;;;;5035430;28;20045;-80
2021/04/24 03:02:34;;;;;;;2.45;2.25;;;11.90;64.10;;;;;;5051886;28;20080;-79
2021/04/24 03:05:06;;;;;;;5.20;2.70;;;11.90;64.10;;;;;;5053189;28;20473;-80
2021/04/24 03:07:32;;;;;;;4.05;2.67;;;11.90;64.20;;;;;;5054207;28;20132;-82
2021/04/24 03:09:58;;;;;;;4.97;3.38;;;11.90;64.20;;;;;;5054176;28;20037;-82
2021/04/24 03:12:24;;;;;;;3.17;2.83;;;11.90;64.30;;;;;;5054085;28;20033;-82
2021/04/24 03:14:50;;;;;;;2.95;2.38;;;11.90;64.20;;;;;;5053131;28;20041;-82
2021/04/24 03:17:16;;;;;;;5.80;2.60;;;11.90;64.00;;;;;;5055634;28;20036;-81
2021/04/24 03:19:43;;;;;;;3.97;2.72;;;12.00;64.20;;;;;;5054495;28;20037;-82
2021/04/24 03:22:12;;;;;;;4.10;2.90;;;11.90;64.10;;;;;;5055845;28;20032;-83
2021/04/24 03:24:39;;;;;;;3.28;2.28;;;12.00;64.10;;;;;;5056341;28;20474;-83
2021/04/24 03:27:05;;;;;;;3.05;2.45;;;12.00;63.90;;;;;;5058029;28;20037;-83
2021/04/24 03:29:31;;;;;;;3.05;2.75;;;12.00;63.70;;;;;;5056018;28;20054;-84
2021/04/24 03:31:57;;;;;;;3.30;2.78;;;12.00;63.70;;;;;;5053660;28;20041;-84
2021/04/24 03:34:24;;;;;;;3.13;2.70;;;12.00;63.70;;;;;;5054020;28;20032;-83
2021/04/24 03:36:50;;;;;;;4.38;2.80;;;12.00;64.20;;;;;;5052962;28;20170;-85
2021/04/24 03:39:16;;;;;;;2.97;2.30;;;12.00;63.50;;;;;;5051759;28;20066;-84
2021/04/24 03:41:42;;;;;;;2.75;2.20;;;12.00;63.30;;;;;;5052902;28;20405;-83
2021/04/24 03:44:09;;;;;;;2.88;2.40;;;12.00;63.10;;;;;;5052326;28;20120;-84
2021/04/24 03:46:35;;;;;;;2.85;2.10;;;12.10;63.00;;;;;;5051613;28;20485;-84
2021/04/24 03:49:01;;;;;;;2.80;2.05;;;12.00;62.90;;;;;;5051663;28;20055;-83
2021/04/24 03:51:27;;;;;;;2.40;2.20;;;12.00;62.90;;;;;;5051856;28;20025;-84
2021/04/24 03:53:53;;;;;;;2.30;2.10;;;12.00;62.90;;;;;;5052478;28;20033;-83
2021/04/24 03:56:18;;;;;;;2.10;1.95;;;12.00;62.90;;;;;;5052631;28;20124;-82
2021/04/24 03:58:44;;;;;;;3.50;1.98;;;12.10;62.90;;;;;;5051456;28;20397;-84
2021/04/24 04:01:10;;;;;;;3.83;2.15;;;12.10;62.90;;;;;;5051471;28;20055;-82
2021/04/24 04:03:36;;;;;;;2.03;1.83;;;12.00;62.90;;;;;;5052775;28;20060;-82
2021/04/24 04:06:02;;;;;;;2.40;2.20;;;12.10;62.80;;;;;;5052821;28;20029;-82
2021/04/24 04:08:28;;;;;;;2.00;1.80;;;12.00;62.80;;;;;;5052517;28;20053;-84
2021/04/24 04:10:55;;;;;;;1.88;1.77;;;12.00;62.80;;;;;;5052261;28;20041;-83
2021/04/24 04:13:21;;;;;;;2.63;1.85;;;12.00;62.80;;;;;;5052534;28;20028;-83
2021/04/24 04:15:47;;;;;;;2.33;2.00;;;12.00;62.80;;;;;;5052368;28;20451;-85
2021/04/24 04:18:18;;;;;;;2.03;1.83;;;12.00;62.70;;;;;;5052407;28;20056;-83
2021/04/24 04:20:53;;;;;;;2.45;1.95;;;12.00;62.80;;;;;;5052351;28;20409;-83
2021/04/24 04:23:19;;;;;;;2.03;1.65;;;12.10;62.80;;;;;;5052970;28;20035;-83
2021/04/24 04:25:47;;;;;;;1.80;1.52;;;12.10;62.70;;;;;;5051771;28;20070;-84
2021/04/24 04:28:14;;;;;;;2.00;1.80;;;12.10;62.70;;;;;;5050917;28;20041;-84
2021/04/24 04:30:41;;;;;;;1.65;1.55;;;12.10;62.70;;;;;;5034658;28;20048;-84
2021/04/24 04:33:09;;;;;;;1.60;1.50;;;12.00;62.60;;;;;;5052363;28;20044;-83
2021/04/24 04:35:36;;;;;;;2.25;1.60;;;12.00;62.50;;;;;;5050534;28;20037;-84
2021/04/24 04:38:03;;;;;;;1.92;1.58;;;12.10;62.50;;;;;;5051883;28;20091;-83
2021/04/24 04:40:30;;;;;;;1.75;1.58;;;12.10;62.50;;;;;;5054247;28;20083;-83
2021/04/24 04:42:56;;;;;;;2.20;1.73;;;12.10;62.40;;;;;;5054979;28;20029;-83
2021/04/24 04:45:23;;;;;;;2.80;1.60;;;12.00;62.30;;;;;;5054249;28;20041;-84
2021/04/24 04:47:51;;;;;;;2.80;1.40;;;12.00;62.30;;;;;;5055633;28;20071;-83
2021/04/24 04:50:29;;;;;;;2.58;1.58;;;12.10;62.30;;;;;;5056118;28;20033;-82
2021/04/24 04:52:58;;;;;;;1.50;1.40;;;12.10;62.40;;;;;;5055639;28;20106;-83
2021/04/24 04:55:25;;;;;;;2.10;1.90;;;12.10;62.40;;;;;;5035063;28;20072;-84
2021/04/24 04:57:51;;;;;;;2.65;1.75;;;12.10;62.40;;;;;;5055186;28;20504;-82
2021/04/24 05:00:20;;;;;;;2.13;1.70;;;12.10;62.60;;;;;;5054840;28;20043;-81
2021/04/24 05:02:47;;;;;;;3.03;2.00;;;12.00;62.60;;;;;;5053015;28;20048;-83
2021/04/24 05:05:15;;;;;;;2.92;1.60;;;12.00;62.70;;;;;;5055232;28;20044;-82
2021/04/24 05:07:42;;;;;;;2.47;2.22;;;12.00;62.70;;;;;;5033428;28;20043;-80
2021/04/24 05:10:09;;;;;;;2.28;1.75;;;12.00;62.80;;;;;;5043085;28;20082;-85
2021/04/24 05:12:35;;;;;;;2.25;1.60;;;12.00;62.80;;;;;;5054897;28;20048;-81
2021/04/24 05:15:04;;;;;;;2.13;1.88;;;12.00;62.90;;;;;;5052204;28;20021;-82
2021/04/24 05:17:33;;;;;;;2.20;1.88;;;12.00;63.10;;;;;;5053367;28;20037;-83
2021/04/24 05:19:59;;;;;;;1.90;1.77;;;12.00;62.80;;;;;;5054931;28;20037;-82
2021/04/24 05:22:25;;;;;;;2.20;1.42;;;12.00;62.80;;;;;;5054867;28;20397;-84
2021/04/24 05:24:55;;;;;;;2.05;1.85;;;12.00;62.80;;;;;;5053665;28;20052;-82
2021/04/24 05:27:20;;;;;;;1.80;1.70;;;12.10;62.70;;;;;;5054775;28;20079;-85
2021/04/24 05:29:47;;;;;;;1.58;1.45;;;12.10;62.80;;;;;;5054994;28;20068;-84
2021/04/24 05:32:14;;;;;;;2.25;1.40;;;12.00;62.60;;;;;;5055676;28;20450;-85
2021/04/24 05:34:40;;;;;;;1.75;1.10;;;12.10;62.70;;;;;;5054400;28;20523;-85
2021/04/24 05:37:07;;;;;;;1.35;1.25;;;12.00;62.60;;;;;;5054205;28;20045;-86
2021/04/24 05:39:32;;;;;;;1.75;1.55;;;12.10;63.20;;;;;;5054357;28;20036;-85
2021/04/24 05:42:00;;;;;;;1.48;1.20;;;12.10;62.50;;;;;;5055493;28;20094;-86
2021/04/24 05:44:27;;;;;;;1.40;1.30;;;12.00;62.50;;;;;;5037883;28;20524;-86
2021/04/24 05:46:56;;;;;;;1.60;1.38;;;12.00;62.30;;;;;;5053505;28;20124;-85
2021/04/24 05:49:22;;;;;;;1.48;1.38;;;12.00;62.40;;;;;;5036453;28;20044;-83
2021/04/24 05:51:48;;;;;;;2.08;1.50;;;12.10;62.40;;;;;;5053151;28;20056;-85
2021/04/24 05:54:14;;;;;;;2.03;1.60;;;12.10;62.30;;;;;;5054682;28;20047;-84
2021/04/24 05:56:40;;;;;;;2.95;1.70;;;12.10;62.40;;;;;;5054575;28;20036;-84
2021/04/24 05:59:07;;;;;;;2.05;1.45;;;12.10;62.40;;;;;;5053740;28;20382;-81
2021/04/24 06:01:33;;;;;;;1.70;1.60;;;12.10;62.40;;;;;;5054317;28;20071;-82
2021/04/24 06:03:59;;;;;;;3.03;1.63;;;12.10;62.30;;;;;;5054103;28;20096;-81
2021/04/24 06:06:25;;;;;;;1.50;1.40;;;12.10;62.20;;;;;;5053534;28;20025;-83
2021/04/24 06:08:51;;;;;;;1.85;1.50;;;12.10;62.30;;;;;;5054786;28;20049;-85
2021/04/24 06:11:17;;;;;;;1.45;1.35;;;12.10;62.20;;;;;;5053411;28;20387;-80
2021/04/24 06:13:43;;;;;;;1.48;1.38;;;12.10;62.10;;;;;;5054425;28;20044;-82
2021/04/24 06:16:12;;;;;;;1.88;1.60;;;12.10;62.00;;;;;;5053317;28;20053;-81
2021/04/24 06:18:38;;;;;;;2.10;1.80;;;12.20;62.00;;;;;;5053617;28;20087;-82
2021/04/24 06:21:04;;;;;;;1.77;1.35;;;12.20;61.80;;;;;;5053587;28;20032;-78
2021/04/24 06:23:30;;;;;;;1.95;1.75;;;12.20;61.70;;;;;;5052149;28;20436;-81
2021/04/24 06:25:56;;;;;;;1.77;1.52;;;12.20;61.70;;;;;;5053842;28;20037;-83
2021/04/24 06:28:22;;;;;;;1.67;1.58;;;12.20;61.60;;;;;;5053379;28;20044;-82
2021/04/24 06:30:48;;;;;;;2.08;1.85;;;12.20;61.60;;;;;;5052436;28;20067;-78
2021/04/24 06:33:13;;;;;;;7.18;2.75;;;12.20;62.40;;;;;;5053821;28;20032;-80
2021/04/24 06:35:40;;;;;;;21.15;4.15;;;12.40;71.00;;;;;;5052155;28;20041;-79
2021/04/24 06:38:06;;;;;;;5.95;3.05;;;12.60;72.50;;;;;;5053465;28;20527;-79
2021/04/24 06:40:31;;;;;;;6.70;2.50;;;12.80;72.30;;;;;;5053388;28;20064;-80
2021/04/24 06:42:57;;;;;;;2.42;2.10;;;12.90;72.30;;;;;;5052307;28;20480;-82
2021/04/24 06:45:24;;;;;;;3.70;2.60;;;13.00;71.30;;;;;;5052979;28;20513;-78
2021/04/24 06:47:51;;;;;;;6.25;4.05;;;13.10;69.30;;;;;;5052181;28;20501;-78
2021/04/24 06:50:17;;;;;;;5.57;4.03;;;13.10;68.90;;;;;;5052147;28;20413;-82
2021/04/24 06:52:43;;;;;;;5.97;3.90;;;13.20;68.80;;;;;;5052349;28;20485;-79
2021/04/24 06:55:11;;;;;;;4.07;3.38;;;13.20;68.30;;;;;;5052360;28;20064;-77
2021/04/24 06:57:37;;;;;;;4.43;3.53;;;13.30;68.20;;;;;;5052061;28;20037;-77
2021/04/24 07:00:06;;;;;;;4.20;3.00;;;13.30;67.90;;;;;;5052983;28;20421;-79
2021/04/24 07:02:32;;;;;;;6.03;3.08;;;13.30;67.80;;;;;;5052978;28;20127;-78
2021/04/24 07:04:58;;;;;;;3.63;3.20;;;13.40;69.30;;;;;;5053657;28;20091;-76
2021/04/24 07:07:24;;;;;;;3.78;2.90;;;13.50;70.20;;;;;;5052975;28;20049;-77
2021/04/24 07:09:50;;;;;;;2.72;2.42;;;13.60;69.00;;;;;;5052953;28;20037;-76
2021/04/24 07:12:16;;;;;;;8.40;2.97;;;13.60;68.30;;;;;;5053007;28;20115;-78
2021/04/24 07:14:42;;;;;;;3.67;2.50;;;13.60;67.60;;;;;;5052852;28;20151;-81
2021/04/24 07:17:08;;;;;;;5.53;2.30;;;13.60;67.20;;;;;;5050975;28;20043;-81
2021/04/24 07:19:34;;;;;;;3.75;2.28;;;13.50;66.50;;;;;;5051303;28;20037;-80
2021/04/24 07:22:00;;;;;;;2.92;2.33;;;13.50;65.50;;;;;;5051240;28;20543;-81
2021/04/24 07:24:26;;;;;;;3.83;2.05;;;13.50;65.00;;;;;;5052967;28;20029;-80
2021/04/24 07:26:52;;;;;;;2.20;1.95;;;13.40;64.40;;;;;;5052605;28;20037;-81
2021/04/24 07:29:18;;;;;;;3.08;2.00;;;13.40;63.80;;;;;;5051416;28;20547;-81
2021/04/24 07:31:44;;;;;;;3.22;1.55;;;13.30;63.30;;;;;;5051394;28;20041;-81
2021/04/24 07:34:12;;;;;;;2.58;2.17;;;13.20;63.00;;;;;;5051267;28;20021;-80
2021/04/24 07:36:39;;;;;;;2.67;2.05;;;13.10;62.70;;;;;;5052235;28;20067;-79
2021/04/24 07:39:06;;;;;;;4.53;2.20;;;13.00;62.60;;;;;;5052133;28;20037;-78
2021/04/24 07:41:32;;;;;;;3.67;2.30;;;12.90;62.50;;;;;;5052274;28;20497;-78
2021/04/24 07:43:58;;;;;;;3.10;2.20;;;12.90;62.40;;;;;;5052182;28;20200;-79
2021/04/24 07:46:24;;;;;;;2.85;1.88;;;12.80;62.40;;;;;;5052780;28;20529;-78
2021/04/24 07:48:50;;;;;;;3.63;2.05;;;12.70;62.40;;;;;;5034459;28;20090;-78
2021/04/24 07:51:16;;;;;;;3.95;1.98;;;12.70;62.60;;;;;;5052361;28;20036;-79
2021/04/24 07:53:42;;;;;;;2.85;2.00;;;12.60;62.60;;;;;;5049061;28;20048;-80
2021/04/24 07:56:09;;;;;;;3.05;2.33;;;12.50;62.60;;;;;;5051082;28;20044;-81
2021/04/24 07:58:35;;;;;;;3.42;2.00;;;12.50;62.80;;;;;;5051444;28;20040;-81
2021/04/24 08:01:02;;;;;;;3.75;2.28;;;12.40;62.90;;;;;;5049834;28;20048;-80
2021/04/24 08:03:28;;;;;;;3.13;1.85;;;12.40;63.00;;;;;;5049012;28;20076;-80
2021/04/24 08:05:53;;;;;;;2.60;2.00;;;12.30;63.00;;;;;;5049476;28;20450;-78
2021/04/24 08:08:19;;;;;;;2.05;1.80;;;12.30;63.60;;;;;;5050979;28;20573;-80
2021/04/24 08:10:45;;;;;;;2.95;1.52;;;12.30;63.00;;;;;;5051196;28;20029;-80
2021/04/24 08:13:11;;;;;;;1.83;1.45;;;12.20;63.00;;;;;;5049703;28;20071;-79
2021/04/24 08:15:37;;;;;;;2.45;1.67;;;12.20;62.80;;;;;;5053063;28;20041;-79
2021/04/24 08:18:04;;;;;;;1.45;1.27;;;12.20;62.70;;;;;;5054336;28;20063;-79
2021/04/24 08:20:33;;;;;;;1.70;1.60;;;12.20;62.60;;;;;;5054032;28;20037;-80
2021/04/24 08:22:59;;;;;;;3.13;1.65;;;12.20;62.50;;;;;;5055588;28;20044;-80
2021/04/24 08:25:25;;;;;;;1.45;1.35;;;12.20;62.50;;;;;;5055267;28;20033;-80
2021/04/24 08:27:51;;;;;;;1.55;1.45;;;12.20;62.50;;;;;;5054329;28;20041;-79
2021/04/24 08:30:18;;;;;;;1.50;1.40;;;12.20;62.40;;;;;;5056137;28;20076;-77
2021/04/24 08:32:46;;;;;;;1.98;1.33;;;12.20;62.40;;;;;;5050090;28;20040;-78
2021/04/24 08:35:13;;;;;;;1.75;1.20;;;12.20;62.40;;;;;;5053786;28;20037;-78
2021/04/24 08:37:40;;;;;;;1.48;1.38;;;12.20;62.30;;;;;;5054064;28;20415;-76
2021/04/24 08:40:08;;;;;;;1.42;1.05;;;12.10;62.20;;;;;;5054010;28;20112;-78
2021/04/24 08:42:34;;;;;;;1.58;1.48;;;12.10;62.20;;;;;;5052361;28;20041;-77
2021/04/24 08:45:13;;;;;;;1.83;1.42;;;12.10;62.80;;;;;;5055064;28;20044;-81
2021/04/24 08:47:43;;;;;;;2.13;1.00;;;12.10;62.20;;;;;;5053905;28;20048;-81
2021/04/24 08:50:12;;;;;;;1.23;1.13;;;12.10;62.10;;;;;;5054677;28;20051;-80
2021/04/24 08:52:40;;;;;;;2.05;1.10;;;12.10;62.10;;;;;;5053351;28;20040;-84
2021/04/24 08:55:07;;;;;;;1.50;1.30;;;12.10;62.10;;;;;;5053206;28;20037;-82
2021/04/24 08:57:36;;;;;;;1.33;1.15;;;12.00;61.80;;;;;;5054339;28;20037;-82
2021/04/24 09:00:07;;;;;;;1.40;1.30;;;12.00;61.80;;;;;;5052313;28;20044;-81
2021/04/24 09:02:33;;;;;;;1.50;1.40;;;12.00;61.80;;;;;;5052259;28;20056;-80
2021/04/24 09:05:00;;;;;;;1.83;1.42;;;11.90;62.00;;;;;;5053643;28;20028;-79
2021/04/24 09:07:26;;;;;;;1.70;1.50;;;11.80;62.10;;;;;;5053459;28;20124;-81
2021/04/24 09:09:59;;;;;;;1.73;1.40;;;11.80;62.10;;;;;;5053328;28;20029;-81
2021/04/24 09:12:54;;;;;;;1.65;1.33;;;11.80;62.20;;;;;;5053056;28;20484;-82
2021/04/24 09:15:24;;;;;;;1.95;1.33;;;11.70;62.40;;;;;;5044507;28;20476;-82
2021/04/24 09:18:02;;;;;;;2.70;1.20;;;11.70;62.30;;;;;;5052258;28;20029;-81
2021/04/24 09:20:48;;;;;;;1.75;1.65;;;11.80;62.40;;;;;;5054245;28;20040;-79
2021/04/24 09:23:19;;;;;;;1.83;1.40;;;11.70;62.30;;;;;;5054072;28;20033;-80
2021/04/24 09:26:10;;;;;;;1.58;1.30;;;11.70;62.00;;;;;;5036176;28;20429;-82
2021/04/24 09:28:45;;;;;;;1.85;1.40;;;11.70;62.00;;;;;;5054424;28;20139;-80
2021/04/24 09:31:14;;;;;;;1.33;1.20;;;11.70;61.90;;;;;;5053104;28;20037;-80
2021/04/24 09:33:42;;;;;;;1.40;1.30;;;11.70;61.90;;;;;;5036760;28;20044;-81
2021/04/24 09:36:12;;;;;;;1.10;1.10;;;11.70;61.80;;;;;;5053296;28;20394;-80
2021/04/24 09:38:49;;;;;;;1.10;1.10;;;11.70;61.80;;;;;;5053442;28;20037;-78
2021/04/24 09:41:24;;;;;;;1.10;1.00;;;11.70;61.70;;;;;;5054348;28;20044;-80
2021/04/24 09:44:07;;;;;;;1.88;1.20;;;11.70;61.70;;;;;;5053414;28;20124;-79
2021/04/24 09:46:48;;;;;;;1.20;1.10;;;11.70;61.70;;;;;;5052794;28;20497;-77
2021/04/24 09:49:31;;;;;;;1.20;1.10;;;11.70;61.80;;;;;;5054244;28;20528;-78
2021/04/24 09:51:59;;;;;;;0.98;0.95;;;11.70;61.80;;;;;;5054471;28;20041;-81
2021/04/24 09:54:44;;;;;;;1.75;1.40;;;11.70;61.80;;;;;;5053021;28;20055;-78
2021/04/24 09:57:19;;;;;;;1.77;1.25;;;11.70;62.00;;;;;;5054321;28;20035;-79
2021/04/24 09:59:59;;;;;;;1.38;1.27;;;11.70;61.90;;;;;;5052968;28;20117;-80
2021/04/24 10:02:37;;;;;;;2.40;1.70;;;11.70;62.00;;;;;;5035915;28;20037;-78
2021/04/24 10:05:16;;;;;;;1.70;1.50;;;11.80;61.80;;;;;;5054331;28;20045;-79
2021/04/24 10:07:50;;;;;;;1.58;1.15;;;11.80;61.60;;;;;;5054174;28;20546;-79
2021/04/24 10:10:36;;;;;;;1.80;1.40;;;11.80;61.50;;;;;;5036335;28;20037;-80
2021/04/24 10:13:09;;;;;;;2.42;1.55;;;11.80;61.50;;;;;;5054681;28;20032;-81
2021/04/24 10:15:36;;;;;;;1.75;1.65;;;11.90;61.30;;;;;;5054054;28;20619;-82
2021/04/24 10:18:09;;;;;;;1.83;1.63;;;11.90;61.50;;;;;;5052675;28;20045;-82
2021/04/24 10:20:38;;;;;;;1.52;1.42;;;11.80;61.50;;;;;;5054375;28;20069;-84
2021/04/24 10:23:08;;;;;;;1.58;1.42;;;11.80;61.60;;;;;;5054073;28;20068;-80
2021/04/24 10:25:39;;;;;;;1.38;1.23;;;11.80;61.60;;;;;;5053552;28;20533;-81
2021/04/24 10:28:05;;;;;;;1.70;1.60;;;11.80;61.60;;;;;;5052888;28;20465;-78
2021/04/24 10:30:31;;;;;;;1.92;1.70;;;11.70;61.70;;;;;;5054207;28;20072;-79
2021/04/24 10:32:57;;;;;;;1.75;1.40;;;11.70;61.80;;;;;;5053408;28;20490;-83
2021/04/24 10:35:26;;;;;;;1.70;1.60;;;11.70;61.80;;;;;;5052627;28;20033;-82
2021/04/24 10:37:53;;;;;;;1.58;1.48;;;11.70;62.00;;;;;;5051651;28;20037;-81
2021/04/24 10:40:20;;;;;;;1.77;1.67;;;11.80;61.90;;;;;;5051685;28;20080;-81
2021/04/24 10:42:55;;;;;;;3.28;1.90;;;11.70;61.90;;;;;;5053710;28;20119;-87
2021/04/24 10:45:28;;;;;;;2.78;2.00;;;11.70;62.00;;;;;;5053937;28;20040;-79
2021/04/24 10:47:55;;;;;;;1.73;1.63;;;11.80;62.10;;;;;;5053476;28;20067;-82
2021/04/24 10:50:25;;;;;;;1.80;1.70;;;11.80;62.10;;;;;;5035522;28;20032;-82
2021/04/24 10:53:11;;;;;;;3.63;1.60;;;11.80;63.60;;;;;;5054671;28;20153;-87
2021/04/24 10:55:43;;;;;;;2.20;1.52;;;12.00;66.90;;;;;;5051917;28;20549;-83
2021/04/24 10:58:21;;;;;;;2.72;1.60;;;12.20;67.50;;;;;;5051908;28;20044;-81
2021/04/24 11:00:58;;;;;;;1.83;1.70;;;12.30;66.00;;;;;;5051836;28;20374;-84
2021/04/24 11:03:52;;;;;;;1.70;1.60;;;12.30;64.90;;;;;;5059519;28;20052;-85
2021/04/24 11:06:23;;;;;;;2.30;2.10;;;12.30;64.10;;;;;;5053265;28;20099;-87
2021/04/24 11:09:10;;;;;;;1.98;1.73;;;12.30;63.70;;;;;;5035356;28;20068;-85
2021/04/24 11:11:37;;;;;;;2.88;1.60;;;12.30;63.50;;;;;;5053445;28;20119;-86
2021/04/24 11:14:04;;;;;;;2.58;2.08;;;12.30;63.00;;;;;;5054069;28;20037;-84
2021/04/24 11:16:32;;;;;;;1.67;1.58;;;12.20;62.90;;;;;;5054981;28;20039;-81
2021/04/24 11:18:59;;;;;;;2.35;2.15;;;12.30;62.80;;;;;;5053525;28;20045;-80
2021/04/24 11:21:27;;;;;;;2.33;2.03;;;12.20;62.60;;;;;;5052111;28;20029;-82
2021/04/24 11:23:59;;;;;;;2.50;1.98;;;12.20;62.70;;;;;;5053910;28;20056;-85
2021/04/24 11:26:31;;;;;;;2.20;1.50;;;12.30;62.80;;;;;;5054360;28;20033;-88
2021/04/24 11:29:05;;;;;;;2.42;1.40;;;12.30;62.60;;;;;;5054298;28;20044;-87
2021/04/24 11:31:47;;;;;;;4.13;1.80;;;12.30;62.50;;;;;;5052407;28;20040;-89
2021/04/24 11:34:49;;;;;;;1.63;1.50;;;12.40;62.60;;;;;;5054595;28;20065;-89
2021/04/24 11:37:18;;;;;;;1.67;1.50;;;12.40;62.30;;;;;;5049074;28;20040;-88
2021/04/24 11:40:23;;;;;;;1.50;1.40;;;12.50;62.40;;;;;;5052049;28;20049;-88
2021/04/24 11:43:05;;;;;;;1.40;1.30;;;12.50;62.30;;;;;;5052983;28;20044;-83
2021/04/24 11:46:05;;;;;;;1.98;1.40;;;12.50;62.20;;;;;;5052160;28;20037;-83
2021/04/24 11:48:47;;;;;;;1.33;1.23;;;12.50;62.20;;;;;;5050041;28;20400;-82
2021/04/24 11:51:37;;;;;;;1.40;1.30;;;12.60;62.40;;;;;;5056564;28;20103;-80
2021/04/24 11:54:09;;;;;;;1.80;1.50;;;12.60;62.40;;;;;;5056890;28;20068;-84
2021/04/24 11:56:36;;;;;;;1.20;1.10;;;12.70;62.20;;;;;;5039802;28;20033;-84
2021/04/24 11:59:03;;;;;;;3.25;1.58;;;12.70;62.10;;;;;;5056373;28;20035;-84
2021/04/24 12:01:29;;;;;;;0.93;0.93;;;12.70;62.70;;;;;;5055188;28;20059;-80
2021/04/24 12:03:55;;;;;;;1.40;1.30;;;12.90;65.60;;;;;;5056205;28;20189;-83
2021/04/24 12:06:42;;;;;;;1.48;1.10;;;13.00;64.70;;;;;;5056163;28;20087;-82
2021/04/24 12:09:13;;;;;;;1.58;1.38;;;13.00;63.80;;;;;;5056206;28;20059;-81
2021/04/24 12:11:41;;;;;;;1.23;1.10;;;13.00;63.20;;;;;;5054770;28;20127;-81
2021/04/24 12:14:09;;;;;;;0.90;0.90;;;13.10;62.80;;;;;;5056186;28;20032;-80
2021/04/24 12:16:46;;;;;;;1.23;1.13;;;13.10;62.50;;;;;;5054642;28;20032;-79
2021/04/24 12:19:37;;;;;;;1.30;1.20;;;13.10;62.20;;;;;;5054208;28;20051;-82
2021/04/24 12:22:20;;;;;;;1.30;1.17;;;13.10;62.10;;;;;;5053996;28;20067;-83
2021/04/24 12:24:58;;;;;;;2.15;1.40;;;13.10;61.70;;;;;;5055972;28;20497;-82
2021/04/24 12:27:26;;;;;;;1.73;1.20;;;13.10;61.70;;;;;;5055477;28;20049;-81
2021/04/24 12:29:52;;;;;;;1.67;1.58;;;13.10;61.50;;;;;;5055724;28;20464;-80
2021/04/24 12:32:22;;;;;;;2.00;1.50;;;13.20;61.40;;;;;;5056615;28;20105;-81
2021/04/24 12:34:49;;;;;;;1.80;1.60;;;13.20;61.40;;;;;;5054608;28;20155;-83
2021/04/24 12:37:22;;;;;;;1.77;1.17;;;13.20;61.40;;;;;;5056206;28;20045;-87
2021/04/24 12:40:13;;;;;;;1.50;1.40;;;13.20;61.30;;;;;;5055942;28;20401;-82
2021/04/24 12:42:43;;;;;;;1.27;1.17;;;13.20;61.40;;;;;;5056326;28;20108;-83
2021/04/24 12:45:17;;;;;;;2.00;1.40;;;13.20;61.30;;;;;;5055075;28;20451;-85
2021/04/24 12:47:44;;;;;;;1.45;1.35;;;13.20;61.40;;;;;;5053070;28;20394;-86
2021/04/24 12:50:20;;;;;;;2.45;1.60;;;13.20;61.20;;;;;;5055081;28;20036;-83
2021/04/24 12:52:51;;;;;;;;;;;13.20;61.20;;;;;;5054830;28;20064;-83
2021/04/24 12:55:19;;;;;;;1.10;1.02;;;13.30;61.20;;;;;;5055386;28;20388;-84
2021/04/24 12:57:58;;;;;;;1.48;1.38;;;13.20;61.10;;;;;;5055467;28;20045;-82
2021/04/24 13:00:48;;;;;;;2.03;1.50;;;13.30;61.10;;;;;;5054310;28;20087;-89